createdAt,value
2018-12-05T00:00:56.840Z,11.30
2018-12-05T00:02:03.337Z,10.38
2018-12-05T00:03:08.915Z,9.20
2018-12-05T00:04:13.552Z,9.85
2018-12-05T00:05:18.114Z,9.48
2018-12-05T00:06:22.501Z,9.83
2018-12-05T00:07:26.916Z,9.75
2018-12-05T00:08:31.839Z,10.43
2018-12-05T00:09:36.460Z,11.50
2018-12-05T00:10:44.752Z,10.08
2018-12-05T00:11:49.156Z,13.10
2018-12-05T00:12:53.698Z,13.80
2018-12-05T00:13:58.125Z,13.58
2018-12-05T00:15:02.547Z,13.72
2018-12-05T00:16:06.996Z,13.85
2018-12-05T00:17:12.230Z,14.10
2018-12-05T00:18:17.699Z,14.83
2018-12-05T00:19:22.289Z,12.50
2018-12-05T00:20:26.784Z,12.78
2018-12-05T00:21:31.920Z,12.82
2018-12-05T00:22:36.351Z,11.03
2018-12-05T00:23:41.911Z,13.32
2018-12-05T00:24:48.109Z,11.00
2018-12-05T00:25:53.121Z,12.10
2018-12-05T00:26:57.868Z,11.00
2018-12-05T00:28:03.317Z,10.80
2018-12-05T00:29:08.088Z,10.53
2018-12-05T00:30:12.615Z,11.80
2018-12-05T00:31:17.260Z,13.03
2018-12-05T00:32:23.290Z,13.20
2018-12-05T00:33:28.122Z,12.93
2018-12-05T00:34:32.690Z,14.40
2018-12-05T00:35:37.197Z,14.65
2018-12-05T00:36:41.669Z,13.48
2018-12-05T00:37:46.716Z,15.23
2018-12-05T00:38:51.396Z,14.03
2018-12-05T00:39:55.984Z,16.17
2018-12-05T00:41:01.367Z,15.70
2018-12-05T00:42:05.983Z,13.68
2018-12-05T00:43:10.728Z,13.95
2018-12-05T00:44:16.078Z,11.75
2018-12-05T00:45:22.291Z,11.48
2018-12-05T00:46:27.143Z,11.68
2018-12-05T00:47:31.535Z,12.25
2018-12-05T00:48:35.990Z,12.25
2018-12-05T00:49:40.435Z,10.43
2018-12-05T00:50:45.941Z,11.55
2018-12-05T00:51:53.286Z,12.47
2018-12-05T00:52:58.108Z,12.33
2018-12-05T00:54:02.664Z,10.82
2018-12-05T00:55:07.875Z,11.85
2018-12-05T00:56:12.607Z,11.10
2018-12-05T00:57:17.640Z,11.73
2018-12-05T00:58:22.004Z,11.35
2018-12-05T00:59:27.937Z,14.00
2018-12-05T01:00:32.896Z,15.55
2018-12-05T01:01:38.823Z,15.83
2018-12-05T01:02:43.353Z,13.48
2018-12-05T01:03:48.451Z,14.30
2018-12-05T01:04:52.900Z,14.50
2018-12-05T01:05:57.504Z,13.70
2018-12-05T01:07:02.080Z,14.43
2018-12-05T01:08:06.747Z,13.83
2018-12-05T01:09:13.152Z,16.97
2018-12-05T01:10:17.861Z,15.32
2018-12-05T01:11:22.263Z,13.60
2018-12-05T01:12:26.757Z,12.35
2018-12-05T01:13:31.233Z,15.90
2018-12-05T01:14:35.747Z,16.87
2018-12-05T01:15:40.632Z,15.55
2018-12-05T01:16:45.194Z,15.30
2018-12-05T01:17:50.125Z,14.13
2018-12-05T01:18:54.589Z,13.18
2018-12-05T01:19:58.958Z,14.65
2018-12-05T01:21:03.493Z,13.72
2018-12-05T01:22:08.004Z,14.68
2018-12-05T01:23:12.454Z,13.32
2018-12-05T01:24:16.999Z,14.10
2018-12-05T01:25:21.647Z,12.13
2018-12-05T01:26:26.081Z,12.60
2018-12-05T01:27:30.927Z,14.75
2018-12-05T01:28:35.404Z,13.88
2018-12-05T01:29:40.131Z,14.25
2018-12-05T01:30:45.436Z,13.18
2018-12-05T01:31:51.835Z,12.70
2018-12-05T01:32:56.313Z,12.85
2018-12-05T01:34:00.711Z,12.20
2018-12-05T01:35:05.692Z,12.15
2018-12-05T01:36:10.402Z,11.78
2018-12-05T01:37:15.137Z,13.60
2018-12-05T01:38:20.480Z,13.25
2018-12-05T01:39:25.285Z,11.93
2018-12-05T01:40:30.278Z,11.03
2018-12-05T01:41:36.400Z,11.60
2018-12-05T01:42:40.852Z,11.97
2018-12-05T01:43:48.767Z,11.00
2018-12-05T01:44:57.357Z,10.25
2018-12-05T01:46:01.820Z,10.30
2018-12-05T01:47:06.275Z,11.30
2018-12-05T01:48:11.040Z,10.80
2018-12-05T01:49:16.212Z,9.55
2018-12-05T01:50:20.625Z,10.43
2018-12-05T01:51:25.348Z,10.55
2018-12-05T01:52:29.775Z,10.80
2018-12-05T01:53:34.268Z,11.80
2018-12-05T01:54:38.747Z,9.70
2018-12-05T01:55:43.714Z,10.95
2018-12-05T01:56:48.293Z,9.83
2018-12-05T01:57:52.881Z,10.95
2018-12-05T01:58:57.477Z,12.33
2018-12-05T02:00:02.074Z,9.98
2018-12-05T02:01:07.741Z,12.35
2018-12-05T02:02:12.268Z,14.00
2018-12-05T02:03:16.786Z,11.50
2018-12-05T02:04:21.505Z,12.90
2018-12-05T02:05:25.920Z,10.70
2018-12-05T02:06:30.397Z,12.55
2018-12-05T02:07:35.014Z,11.78
2018-12-05T02:08:41.103Z,11.85
2018-12-05T02:09:47.436Z,11.60
2018-12-05T02:10:51.919Z,11.43
2018-12-05T02:11:57.331Z,14.28
2018-12-05T02:13:02.066Z,10.85
2018-12-05T02:14:06.906Z,12.50
2018-12-05T02:15:11.568Z,12.88
2018-12-05T02:16:15.970Z,12.15
2018-12-05T02:17:20.431Z,12.88
2018-12-05T02:18:24.942Z,12.98
2018-12-05T02:19:31.435Z,12.33
2018-12-05T02:20:35.902Z,11.70
2018-12-05T02:21:40.419Z,11.30
2018-12-05T02:22:44.863Z,12.55
2018-12-05T02:23:49.331Z,10.98
2018-12-05T02:24:54.313Z,11.50
2018-12-05T02:25:58.706Z,12.90
2018-12-05T02:27:03.217Z,12.40
2018-12-05T02:28:07.900Z,12.07
2018-12-05T02:29:14.285Z,12.40
2018-12-05T02:30:19.162Z,12.10
2018-12-05T02:31:23.664Z,11.33
2018-12-05T02:32:28.051Z,11.70
2018-12-05T02:33:32.750Z,12.30
2018-12-05T02:34:37.463Z,11.80
2018-12-05T02:35:41.885Z,13.70
2018-12-05T02:36:46.261Z,11.78
2018-12-05T02:37:50.686Z,12.00
2018-12-05T02:38:56.779Z,11.25
2018-12-05T02:40:01.318Z,11.88
2018-12-05T02:41:06.549Z,9.95
2018-12-05T02:42:11.018Z,11.85
2018-12-05T02:43:15.652Z,11.33
2018-12-05T02:44:22.128Z,10.40
2018-12-05T02:45:26.679Z,10.98
2018-12-05T02:46:31.136Z,10.65
2018-12-05T02:47:35.694Z,11.15
2018-12-05T02:48:40.240Z,10.30
2018-12-05T02:49:44.808Z,11.63
2018-12-05T02:50:49.398Z,10.13
2018-12-05T02:51:54.405Z,10.55
2018-12-05T02:52:58.853Z,11.20
2018-12-05T02:54:03.269Z,9.40
2018-12-05T02:55:07.817Z,10.10
2018-12-05T02:56:12.254Z,10.75
2018-12-05T02:57:16.733Z,9.10
2018-12-05T02:58:21.305Z,12.53
2018-12-05T02:59:25.691Z,10.80
2018-12-05T03:00:30.174Z,11.57
2018-12-05T03:01:34.624Z,10.82
2018-12-05T03:02:39.211Z,10.85
2018-12-05T03:03:43.777Z,10.75
2018-12-05T03:04:48.252Z,12.05
2018-12-05T03:05:52.719Z,10.05
2018-12-05T03:06:57.130Z,11.22
2018-12-05T03:08:02.776Z,12.03
2018-12-05T03:09:08.788Z,11.40
2018-12-05T03:10:13.680Z,11.50
2018-12-05T03:11:18.317Z,13.62
2018-12-05T03:12:22.672Z,13.10
2018-12-05T03:13:27.104Z,13.40
2018-12-05T03:14:31.588Z,15.23
2018-12-05T03:15:36.185Z,15.05
2018-12-05T03:16:40.889Z,14.93
2018-12-05T03:17:45.788Z,14.33
2018-12-05T03:18:50.221Z,14.10
2018-12-05T03:19:55.247Z,15.53
2018-12-05T03:20:59.695Z,16.45
2018-12-05T03:22:04.757Z,17.48
2018-12-05T03:23:09.187Z,15.40
2018-12-05T03:24:14.360Z,15.85
2018-12-05T03:25:18.820Z,16.67
2018-12-05T03:26:23.394Z,16.52
2018-12-05T03:27:28.182Z,16.50
2018-12-05T03:28:32.742Z,16.25
2018-12-05T03:29:37.332Z,15.78
2018-12-05T03:30:42.044Z,15.75
2018-12-05T03:31:47.214Z,16.40
2018-12-05T03:32:52.627Z,21.65
2018-12-05T03:33:57.093Z,18.95
2018-12-05T03:35:01.492Z,17.80
2018-12-05T03:36:06.121Z,17.17
2018-12-05T03:37:10.553Z,16.40
2018-12-05T03:38:16.208Z,17.07
2018-12-05T03:39:22.267Z,17.02
2018-12-05T03:40:30.427Z,17.15
2018-12-05T03:41:36.148Z,15.90
2018-12-05T03:42:40.845Z,15.75
2018-12-05T03:43:46.749Z,14.13
2018-12-05T03:44:51.407Z,17.32
2018-12-05T03:45:56.377Z,18.57
2018-12-05T03:47:01.574Z,14.47
2018-12-05T03:48:06.430Z,14.93
2018-12-05T03:49:11.100Z,15.53
2018-12-05T03:50:16.292Z,17.60
2018-12-05T03:51:23.981Z,15.38
2018-12-05T03:52:30.304Z,18.62
2018-12-05T03:53:36.107Z,18.75
2018-12-05T03:54:41.455Z,19.25
2018-12-05T03:55:47.449Z,19.42
2018-12-05T03:56:54.212Z,19.60
2018-12-05T03:57:58.962Z,21.80
2018-12-05T03:59:03.597Z,21.33
2018-12-05T04:00:09.348Z,21.95
2018-12-05T04:01:14.615Z,22.90
2018-12-05T04:02:19.176Z,23.85
2018-12-05T04:03:23.715Z,24.35
2018-12-05T04:04:33.098Z,25.80
2018-12-05T04:05:39.587Z,25.85
2018-12-05T04:06:44.032Z,24.82
2018-12-05T04:07:59.944Z,22.58
2018-12-05T04:09:07.034Z,19.75
2018-12-05T04:10:12.595Z,18.85
2018-12-05T04:11:18.481Z,16.67
2018-12-05T04:12:23.591Z,16.93
2018-12-05T04:13:28.535Z,14.98
2018-12-05T04:14:36.392Z,12.90
2018-12-05T04:15:44.827Z,12.33
2018-12-05T04:16:49.521Z,10.80
2018-12-05T04:17:54.688Z,10.65
2018-12-05T04:19:02.281Z,12.80
2018-12-05T04:20:07.199Z,11.48
2018-12-05T04:21:16.196Z,11.22
2018-12-05T04:22:25.088Z,11.50
2018-12-05T04:23:33.798Z,12.13
2018-12-05T04:25:53.990Z,13.00
2018-12-05T04:30:03.389Z,10.35
2018-12-05T04:31:09.278Z,12.20
2018-12-05T04:32:15.913Z,10.53
2018-12-05T04:33:20.703Z,10.78
2018-12-05T04:34:25.432Z,13.08
2018-12-05T04:38:46.453Z,9.98
2018-12-05T04:50:06.158Z,10.38
2018-12-05T04:51:12.590Z,11.38
2018-12-05T04:52:17.523Z,11.90
2018-12-05T04:53:22.192Z,10.90
2018-12-05T04:54:26.660Z,11.55
2018-12-05T04:55:32.440Z,12.55
2018-12-05T04:58:34.987Z,10.55
2018-12-05T04:59:39.693Z,11.40
2018-12-05T05:00:44.374Z,11.03
2018-12-05T05:01:50.590Z,14.73
2018-12-05T05:02:55.209Z,12.95
2018-12-05T05:03:59.829Z,12.75
2018-12-05T05:05:04.531Z,14.78
2018-12-05T05:06:08.946Z,13.85
2018-12-05T05:07:13.405Z,13.38
2018-12-05T05:08:22.316Z,12.30
2018-12-05T05:09:28.127Z,14.70
2018-12-05T05:10:32.754Z,15.25
2018-12-05T05:11:38.654Z,12.88
2018-12-05T05:12:45.265Z,11.70
2018-12-05T05:13:51.114Z,12.23
2018-12-05T05:14:56.307Z,12.00
2018-12-05T05:16:01.103Z,12.40
2018-12-05T05:17:06.411Z,13.53
2018-12-05T05:18:10.775Z,13.58
2018-12-05T05:19:15.876Z,12.53
2018-12-05T05:20:21.032Z,13.75
2018-12-05T05:21:25.585Z,12.93
2018-12-05T05:22:29.947Z,13.83
2018-12-05T05:23:34.549Z,13.08
2018-12-05T05:24:38.944Z,15.50
2018-12-05T05:25:43.292Z,13.80
2018-12-05T05:26:48.597Z,13.93
2018-12-05T05:27:52.949Z,12.10
2018-12-05T05:28:57.508Z,14.13
2018-12-05T05:30:03.024Z,13.85
2018-12-05T05:31:07.469Z,12.75
2018-12-05T05:32:13.180Z,12.23
2018-12-05T05:33:17.719Z,12.07
2018-12-05T05:34:26.389Z,12.20
2018-12-05T05:35:32.222Z,12.85
2018-12-05T05:36:37.875Z,12.55
2018-12-05T05:37:42.666Z,12.10
2018-12-05T05:38:47.284Z,13.18
2018-12-05T05:39:51.761Z,12.10
2018-12-05T05:40:57.786Z,12.00
2018-12-05T05:42:04.061Z,12.40
2018-12-05T05:43:09.863Z,12.65
2018-12-05T05:44:14.525Z,13.83
2018-12-05T05:45:18.962Z,17.45
2018-12-05T05:46:23.451Z,15.93
2018-12-05T05:47:28.380Z,15.35
2018-12-05T05:48:33.262Z,15.78
2018-12-05T05:49:37.663Z,16.25
2018-12-05T05:50:42.078Z,16.32
2018-12-05T05:51:46.751Z,17.85
2018-12-05T05:52:52.274Z,18.05
2018-12-05T05:53:56.739Z,18.73
2018-12-05T05:55:01.171Z,16.57
2018-12-05T05:56:05.619Z,17.15
2018-12-05T05:57:10.015Z,17.95
2018-12-05T05:58:14.556Z,16.00
2018-12-05T05:59:19.144Z,15.93
2018-12-05T06:00:24.047Z,16.37
2018-12-05T06:01:28.507Z,15.60
2018-12-05T06:02:32.992Z,14.40
2018-12-05T06:03:37.407Z,13.50
2018-12-05T06:04:41.791Z,10.98
2018-12-05T06:05:46.216Z,12.73
2018-12-05T06:06:51.243Z,11.35
2018-12-05T06:07:56.808Z,11.57
2018-12-05T06:09:01.269Z,11.25
2018-12-05T06:10:07.593Z,12.93
2018-12-05T06:11:12.002Z,10.88
2018-12-05T06:12:16.656Z,10.90
2018-12-05T06:13:21.375Z,12.30
2018-12-05T06:14:25.879Z,12.18
2018-12-05T06:15:30.328Z,12.90
2018-12-05T06:16:35.089Z,11.40
2018-12-05T06:17:40.766Z,10.45
2018-12-05T06:18:47.482Z,11.48
2018-12-05T06:19:55.281Z,12.13
2018-12-05T06:20:59.972Z,11.15
2018-12-05T06:22:09.417Z,11.78
2018-12-05T06:23:38.759Z,11.12
2018-12-05T06:24:45.024Z,12.28
2018-12-05T06:25:49.642Z,11.83
2018-12-05T06:26:54.095Z,12.90
2018-12-05T06:27:58.515Z,11.65
2018-12-05T06:29:03.611Z,10.30
2018-12-05T06:30:08.793Z,12.95
2018-12-05T06:31:13.211Z,19.23
2018-12-05T06:32:28.665Z,12.00
2018-12-05T06:33:33.955Z,13.03
2018-12-05T06:34:42.008Z,15.60
2018-12-05T06:35:46.394Z,14.58
2018-12-05T06:36:52.282Z,13.43
2018-12-05T06:37:57.069Z,11.93
2018-12-05T06:39:02.462Z,16.25
2018-12-05T06:40:07.525Z,12.00
2018-12-05T06:41:12.654Z,12.15
2018-12-05T06:42:18.163Z,11.83
2018-12-05T06:43:22.928Z,11.60
2018-12-05T06:44:27.406Z,10.75
2018-12-05T06:45:32.285Z,14.80
2018-12-05T06:46:38.286Z,12.45
2018-12-05T06:47:42.806Z,14.93
2018-12-05T06:48:58.488Z,13.15
2018-12-05T06:50:04.727Z,14.43
2018-12-05T06:51:09.184Z,16.57
2018-12-05T06:52:14.083Z,15.68
2018-12-05T06:53:18.536Z,15.18
2018-12-05T06:54:23.379Z,17.62
2018-12-05T06:55:29.033Z,15.40
2018-12-05T06:56:33.737Z,17.90
2018-12-05T06:57:38.379Z,17.27
2018-12-05T06:58:43.272Z,16.40
2018-12-05T06:59:48.167Z,16.62
2018-12-05T07:00:53.855Z,14.00
2018-12-05T07:02:00.818Z,14.55
2018-12-05T07:03:06.241Z,12.90
2018-12-05T07:04:10.814Z,14.83
2018-12-05T07:05:16.073Z,14.10
2018-12-05T07:06:20.555Z,14.65
2018-12-05T07:07:25.049Z,14.03
2018-12-05T07:08:30.850Z,14.28
2018-12-05T07:09:38.385Z,14.80
2018-12-05T07:10:43.433Z,13.60
2018-12-05T07:11:47.946Z,13.83
2018-12-05T07:12:53.383Z,19.20
2018-12-05T07:13:58.051Z,15.60
2018-12-05T07:15:02.787Z,15.38
2018-12-05T07:16:07.909Z,15.83
2018-12-05T07:17:14.495Z,12.47
2018-12-05T07:18:21.953Z,12.93
2018-12-05T07:19:26.982Z,12.82
2018-12-05T07:20:31.443Z,13.38
2018-12-05T07:21:37.128Z,14.75
2018-12-05T07:22:41.855Z,14.95
2018-12-05T07:23:47.525Z,13.65
2018-12-05T07:24:54.001Z,12.95
2018-12-05T07:25:58.744Z,14.28
2018-12-05T07:27:03.166Z,13.35
2018-12-05T07:28:10.501Z,15.80
2018-12-05T07:29:16.666Z,12.80
2018-12-05T07:30:29.539Z,15.32
2018-12-05T07:31:36.559Z,14.00
2018-12-05T07:32:42.122Z,13.43
2018-12-05T07:33:48.118Z,15.15
2018-12-05T07:34:53.337Z,16.37
2018-12-05T07:35:58.478Z,13.35
2018-12-05T07:37:02.971Z,14.53
2018-12-05T07:38:09.704Z,14.43
2018-12-05T07:39:16.274Z,13.88
2018-12-05T07:40:20.714Z,13.08
2018-12-05T07:41:26.786Z,13.30
2018-12-05T07:42:32.041Z,11.60
2018-12-05T07:43:36.440Z,11.55
2018-12-05T07:44:41.867Z,12.82
2018-12-05T07:45:46.299Z,12.28
2018-12-05T07:46:51.608Z,12.10
2018-12-05T07:47:56.290Z,11.15
2018-12-05T07:49:01.060Z,11.10
2018-12-05T07:50:06.092Z,11.18
2018-12-05T07:51:10.538Z,11.60
2018-12-05T07:52:16.093Z,12.05
2018-12-05T07:53:20.537Z,11.28
2018-12-05T07:54:25.154Z,11.48
2018-12-05T07:55:31.632Z,13.18
2018-12-05T07:56:37.391Z,12.53
2018-12-05T07:58:12.673Z,12.05
2018-12-05T07:59:17.627Z,10.85
2018-12-05T08:00:23.100Z,12.63
2018-12-05T08:01:27.545Z,11.35
2018-12-05T08:02:33.378Z,11.68
2018-12-05T08:03:37.894Z,10.10
2018-12-05T08:04:43.343Z,9.60
2018-12-05T08:05:48.869Z,9.18
2018-12-05T08:06:53.379Z,9.80
2018-12-05T08:07:58.211Z,10.45
2018-12-05T08:09:02.996Z,10.55
2018-12-05T08:10:08.684Z,11.93
2018-12-05T08:11:16.519Z,14.58
2018-12-05T08:12:22.359Z,13.55
2018-12-05T08:13:27.608Z,13.78
2018-12-05T08:14:32.638Z,13.13
2018-12-05T08:15:38.456Z,13.35
2018-12-05T08:16:43.274Z,12.07
2018-12-05T08:17:48.222Z,11.08
2018-12-05T08:18:52.726Z,11.80
2018-12-05T08:19:58.107Z,11.90
2018-12-05T08:21:02.685Z,12.68
2018-12-05T08:22:07.623Z,13.25
2018-12-05T08:23:13.273Z,13.72
2018-12-05T08:24:18.280Z,12.70
2018-12-05T08:25:23.141Z,13.85
2018-12-05T08:26:28.725Z,14.58
2018-12-05T08:27:34.779Z,13.88
2018-12-05T08:28:42.911Z,14.98
2018-12-05T08:29:49.174Z,14.98
2018-12-05T08:31:13.136Z,13.25
2018-12-05T08:32:34.532Z,13.83
2018-12-05T08:33:57.435Z,13.05
2018-12-05T08:35:04.856Z,14.33
2018-12-05T08:36:26.971Z,11.85
2018-12-05T08:37:34.361Z,13.62
2018-12-05T08:38:56.190Z,12.23
2018-12-05T08:40:18.921Z,11.55
2018-12-05T08:41:25.135Z,13.78
2018-12-05T08:42:32.462Z,12.13
2018-12-05T08:43:39.669Z,11.90
2018-12-05T08:44:44.401Z,13.53
2018-12-05T08:45:49.864Z,13.40
2018-12-05T08:46:55.077Z,11.60
2018-12-05T08:48:01.586Z,11.65
2018-12-05T08:49:10.976Z,11.63
2018-12-05T08:50:22.779Z,11.93
2018-12-05T08:51:27.661Z,11.83
2018-12-05T08:52:33.549Z,12.80
2018-12-05T08:53:49.151Z,11.55
2018-12-05T08:54:56.319Z,14.70
2018-12-05T08:56:01.884Z,11.20
2018-12-05T08:57:07.797Z,11.45
2018-12-05T08:58:12.455Z,10.18
2018-12-05T08:59:17.826Z,12.45
2018-12-05T09:00:28.931Z,10.98
2018-12-05T09:01:33.552Z,11.83
2018-12-05T09:03:04.129Z,12.00
2018-12-05T09:04:21.518Z,11.60
2018-12-05T09:05:31.817Z,13.13
2018-12-05T09:06:36.798Z,10.65
2018-12-05T09:07:45.751Z,11.22
2018-12-05T09:08:53.738Z,11.65
2018-12-05T09:09:59.762Z,11.83
2018-12-05T09:11:06.238Z,11.45
2018-12-05T09:12:11.862Z,15.40
2018-12-05T09:13:17.868Z,15.15
2018-12-05T09:14:28.577Z,12.18
2018-12-05T09:15:30.209Z,12.93
2018-12-05T09:16:34.737Z,12.40
2018-12-05T09:17:39.435Z,15.40
2018-12-05T09:18:44.013Z,15.08
2018-12-05T09:19:49.793Z,15.10
2018-12-05T09:20:54.890Z,15.53
2018-12-05T09:21:59.710Z,17.42
2018-12-05T09:23:05.547Z,15.78
2018-12-05T09:24:11.288Z,16.00
2018-12-05T09:25:18.011Z,17.70
2018-12-05T09:26:22.501Z,14.60
2018-12-05T09:27:31.894Z,15.88
2018-12-05T09:28:37.126Z,14.90
2018-12-05T09:29:45.208Z,14.50
2018-12-05T09:30:49.952Z,16.85
2018-12-05T09:31:54.411Z,14.53
2018-12-05T09:33:00.445Z,11.95
2018-12-05T09:34:20.591Z,14.78
2018-12-05T09:35:26.026Z,16.35
2018-12-05T09:36:32.421Z,13.60
2018-12-05T09:37:37.713Z,14.70
2018-12-05T09:38:52.195Z,14.40
2018-12-05T09:39:57.404Z,13.80
2018-12-05T09:41:05.901Z,14.83
2018-12-05T09:42:11.702Z,14.73
2018-12-05T09:43:16.328Z,14.15
2018-12-05T09:44:24.491Z,15.58
2018-12-05T09:45:30.328Z,15.08
2018-12-05T09:46:37.872Z,16.65
2018-12-05T09:48:17.716Z,15.32
2018-12-05T09:49:24.649Z,12.20
2018-12-05T09:50:30.847Z,14.23
2018-12-05T09:51:37.497Z,15.28
2018-12-05T09:52:42.996Z,13.45
2018-12-05T09:53:47.566Z,14.15
2018-12-05T09:54:52.145Z,14.70
2018-12-05T09:55:58.476Z,15.53
2018-12-05T09:57:03.447Z,12.70
2018-12-05T09:58:09.199Z,11.68
2018-12-05T09:59:13.977Z,14.10
2018-12-05T10:00:29.191Z,13.05
2018-12-05T10:01:35.513Z,13.25
2018-12-05T10:02:54.557Z,13.95
2018-12-05T10:03:59.374Z,13.98
2018-12-05T10:05:07.461Z,14.07
2018-12-05T10:08:30.830Z,13.80
2018-12-05T10:09:45.718Z,14.05
2018-12-05T10:10:50.803Z,16.05
2018-12-05T10:11:56.875Z,15.68
2018-12-05T10:13:08.814Z,14.28
2018-12-05T10:14:14.249Z,13.00
2018-12-05T10:15:21.988Z,15.32
2018-12-05T10:16:38.285Z,12.55
2018-12-05T10:17:44.289Z,14.87
2018-12-05T10:18:49.422Z,13.50
2018-12-05T10:19:54.415Z,13.58
2018-12-05T10:21:01.896Z,14.05
2018-12-05T10:22:11.052Z,15.05
2018-12-05T10:24:07.551Z,12.98
2018-12-05T10:25:18.813Z,12.95
2018-12-05T10:26:26.747Z,16.37
2018-12-05T10:27:32.089Z,26.40
2018-12-05T10:28:36.951Z,18.32
2018-12-05T10:29:41.674Z,23.18
2018-12-05T10:30:46.209Z,31.50
2018-12-05T10:31:50.904Z,26.48
2018-12-05T10:32:55.487Z,19.23
2018-12-05T10:34:00.772Z,15.93
2018-12-05T10:35:07.031Z,15.35
2018-12-05T10:36:11.941Z,15.50
2018-12-05T10:37:16.401Z,14.63
2018-12-05T10:38:22.581Z,14.55
2018-12-05T10:39:28.891Z,13.55
2018-12-05T10:40:34.558Z,13.18
2018-12-05T10:41:40.241Z,12.37
2018-12-05T10:42:45.262Z,14.53
2018-12-05T10:44:00.740Z,14.15
2018-12-05T10:45:06.014Z,14.73
2018-12-05T10:46:17.076Z,14.45
2018-12-05T10:47:21.906Z,13.75
2018-12-05T10:48:26.599Z,15.05
2018-12-05T10:49:32.008Z,13.65
2018-12-05T10:50:37.914Z,13.28
2018-12-05T10:51:44.411Z,14.25
2018-12-05T10:52:49.170Z,14.55
2018-12-05T10:53:54.371Z,14.65
2018-12-05T10:55:02.907Z,14.45
2018-12-05T10:56:12.735Z,15.53
2018-12-05T10:57:18.368Z,13.15
2018-12-05T10:58:23.378Z,12.23
2018-12-05T10:59:28.340Z,13.08
2018-12-05T11:00:42.477Z,14.35
2018-12-05T11:01:52.994Z,15.78
2018-12-05T11:03:03.035Z,15.60
2018-12-05T11:06:14.706Z,14.65
2018-12-05T11:07:24.320Z,14.20
2018-12-05T11:08:37.272Z,13.08
2018-12-05T11:09:47.353Z,14.63
2018-12-05T11:10:59.382Z,14.33
2018-12-05T11:12:09.833Z,13.80
2018-12-05T11:13:22.063Z,13.95
2018-12-05T11:14:34.027Z,14.33
2018-12-05T11:15:44.126Z,15.90
2018-12-05T11:16:59.442Z,13.25
2018-12-05T11:18:11.389Z,13.98
2018-12-05T11:19:22.038Z,14.93
2018-12-05T11:20:33.245Z,15.15
2018-12-05T11:21:49.800Z,15.58
2018-12-05T11:23:00.164Z,15.25
2018-12-05T11:24:20.222Z,13.05
2018-12-05T11:26:10.031Z,13.55
2018-12-05T11:27:19.950Z,13.05
2018-12-05T11:28:41.094Z,14.28
2018-12-05T11:35:14.651Z,14.00
2018-12-05T11:37:00.466Z,14.78
2018-12-05T11:38:36.638Z,14.87
2018-12-05T11:40:00.084Z,13.70
2018-12-05T11:41:14.286Z,14.58
2018-12-05T11:44:28.045Z,13.85
2018-12-05T11:45:34.206Z,16.23
2018-12-05T11:48:20.534Z,14.65
2018-12-05T11:49:28.222Z,15.90
2018-12-05T11:50:39.723Z,15.58
2018-12-05T11:51:45.404Z,14.93
2018-12-05T11:54:10.384Z,15.18
2018-12-05T11:55:15.108Z,15.03
2018-12-05T11:56:28.437Z,14.15
2018-12-05T11:59:41.752Z,12.77
2018-12-05T12:01:25.795Z,12.33
2018-12-05T12:02:30.638Z,12.68
2018-12-05T12:03:36.545Z,12.78
2018-12-05T12:04:42.245Z,10.60
2018-12-05T12:05:48.041Z,14.47
2018-12-05T12:06:53.918Z,13.75
2018-12-05T12:08:00.165Z,13.25
2018-12-05T12:09:07.979Z,12.10
2018-12-05T12:10:15.005Z,12.37
2018-12-05T12:11:19.770Z,13.60
2018-12-05T12:12:29.630Z,15.20
2018-12-05T12:13:34.176Z,15.40
2018-12-05T12:14:43.967Z,14.95
2018-12-05T12:15:57.340Z,13.18
2018-12-05T12:17:07.528Z,14.58
2018-12-05T12:18:31.300Z,14.30
2018-12-05T12:19:39.122Z,12.53
2018-12-05T12:20:44.947Z,13.58
2018-12-05T12:21:51.797Z,13.32
2018-12-05T12:22:58.926Z,15.30
2018-12-05T12:24:26.585Z,16.80
2018-12-05T12:25:39.991Z,16.27
2018-12-05T12:26:44.510Z,23.05
2018-12-05T12:27:49.880Z,22.15
2018-12-05T12:28:55.270Z,21.87
2018-12-05T12:29:59.829Z,25.82
2018-12-05T12:31:05.906Z,25.95
2018-12-05T12:32:12.718Z,18.15
2018-12-05T12:33:20.927Z,18.32
2018-12-05T12:34:26.871Z,17.77
2018-12-05T12:35:32.876Z,15.28
2018-12-05T12:36:41.105Z,16.57
2018-12-05T12:38:02.062Z,12.50
2018-12-05T12:39:23.846Z,15.10
2018-12-05T12:40:48.831Z,18.32
2018-12-05T12:41:55.429Z,16.40
2018-12-05T12:43:22.274Z,14.85
2018-12-05T12:46:19.030Z,15.75
2018-12-05T12:47:25.326Z,16.10
2018-12-05T12:48:42.512Z,15.00
2018-12-05T12:49:51.325Z,15.10
2018-12-05T12:51:05.576Z,14.68
2018-12-05T12:52:10.591Z,14.60
2018-12-05T12:53:18.037Z,15.05
2018-12-05T12:54:36.413Z,14.00
2018-12-05T12:55:41.955Z,13.93
2018-12-05T12:56:46.714Z,13.18
2018-12-05T12:57:52.490Z,17.20
2018-12-05T12:58:57.119Z,16.20
2018-12-05T13:00:03.712Z,17.70
2018-12-05T13:01:10.149Z,14.85
2018-12-05T13:02:15.472Z,14.85
2018-12-05T13:03:20.552Z,15.70
2018-12-05T13:04:26.531Z,15.30
2018-12-05T13:05:35.654Z,13.80
2018-12-05T13:06:40.344Z,14.58
2018-12-05T13:07:45.983Z,14.18
2018-12-05T13:08:54.213Z,16.97
2018-12-05T13:10:06.932Z,13.48
2018-12-05T13:11:22.800Z,14.50
2018-12-05T13:12:36.359Z,14.68
2018-12-05T13:13:45.349Z,15.35
2018-12-05T13:14:50.292Z,14.98
2018-12-05T13:15:56.196Z,15.38
2018-12-05T13:17:27.106Z,13.90
2018-12-05T13:18:34.856Z,13.80
2018-12-05T13:19:46.240Z,13.85
2018-12-05T13:20:53.832Z,13.25
2018-12-05T13:22:02.236Z,12.37
2018-12-05T13:23:09.518Z,13.03
2018-12-05T13:24:14.893Z,16.57
2018-12-05T13:25:22.714Z,13.00
2018-12-05T13:26:31.097Z,14.50
2018-12-05T13:27:39.273Z,15.60
2018-12-05T13:28:45.387Z,14.65
2018-12-05T13:29:51.536Z,15.18
2018-12-05T13:30:56.101Z,15.15
2018-12-05T13:32:01.920Z,15.80
2018-12-05T13:33:06.674Z,15.80
2018-12-05T13:34:13.745Z,15.70
2018-12-05T13:35:31.262Z,16.35
2018-12-05T13:36:51.832Z,13.55
2018-12-05T13:38:02.481Z,16.07
2018-12-05T13:39:21.317Z,16.42
2018-12-05T13:40:47.072Z,17.02
2018-12-05T13:42:04.826Z,13.58
2018-12-05T13:43:11.480Z,15.08
2018-12-05T13:44:22.496Z,14.28
2018-12-05T13:45:30.347Z,15.05
2018-12-05T13:46:38.658Z,14.05
2018-12-05T13:47:44.885Z,13.70
2018-12-05T13:48:50.483Z,16.23
2018-12-05T13:49:56.453Z,14.78
2018-12-05T13:51:02.904Z,13.88
2018-12-05T13:52:09.457Z,16.12
2018-12-05T13:53:15.948Z,16.30
2018-12-05T13:54:20.519Z,15.63
2018-12-05T13:55:28.713Z,16.37
2018-12-05T13:56:33.900Z,16.25
2018-12-05T13:57:39.592Z,16.87
2018-12-05T13:59:53.997Z,17.73
2018-12-05T14:01:02.160Z,17.40
2018-12-05T14:02:29.533Z,14.78
2018-12-05T14:03:47.427Z,17.05
2018-12-05T14:04:55.238Z,17.48
2018-12-05T14:06:05.483Z,16.35
2018-12-05T14:07:17.982Z,15.83
2018-12-05T14:08:40.627Z,16.70
2018-12-05T14:09:50.013Z,19.48
2018-12-05T14:11:08.830Z,17.25
2018-12-05T14:12:31.457Z,18.62
2018-12-05T14:13:45.851Z,16.57
2018-12-05T14:14:59.579Z,15.72
2018-12-05T14:16:12.770Z,14.53
2018-12-05T14:17:20.132Z,14.60
2018-12-05T14:18:34.413Z,14.35
2018-12-05T14:19:43.117Z,17.15
2018-12-05T14:20:57.543Z,14.45
2018-12-05T14:22:09.312Z,16.97
2018-12-05T14:23:16.466Z,17.90
2018-12-05T14:24:26.359Z,19.25
2018-12-05T14:25:37.501Z,22.45
2018-12-05T14:26:48.106Z,25.70
2018-12-05T14:28:00.835Z,26.33
2018-12-05T14:29:10.331Z,21.40
2018-12-05T14:30:22.398Z,19.40
2018-12-05T14:31:31.206Z,25.92
2018-12-05T14:32:49.969Z,24.82
2018-12-05T14:33:55.169Z,19.82
2018-12-05T14:35:02.660Z,23.40
2018-12-05T14:36:10.634Z,22.07
2018-12-05T14:37:16.097Z,20.40
2018-12-05T14:38:27.369Z,19.23
2018-12-05T14:39:36.933Z,18.25
2018-12-05T14:40:46.782Z,16.17
2018-12-05T14:41:55.971Z,18.27
2018-12-05T14:43:03.650Z,17.25
2018-12-05T14:44:12.569Z,20.27
2018-12-05T14:45:20.390Z,20.45
2018-12-05T14:46:29.420Z,15.58
2018-12-05T14:47:34.259Z,14.35
2018-12-05T14:48:40.492Z,18.55
2018-12-05T14:49:47.534Z,18.02
2018-12-05T14:50:59.853Z,17.98
2018-12-05T14:52:07.952Z,23.00
2018-12-05T14:53:17.020Z,32.05
2018-12-05T14:54:43.433Z,34.35
2018-12-05T14:55:53.939Z,41.18
2018-12-05T14:57:02.047Z,66.62
2018-12-05T14:58:12.466Z,76.07
2018-12-05T14:59:22.648Z,39.55
2018-12-05T15:00:31.167Z,36.40
2018-12-05T15:01:38.747Z,21.35
2018-12-05T15:02:47.505Z,24.23
2018-12-05T15:03:57.257Z,24.37
2018-12-05T15:05:03.482Z,23.07
2018-12-05T15:06:18.655Z,21.52
2018-12-05T15:07:36.920Z,22.07